createdAt,value
2023-03-20T00:02:07.058Z,10.05
2023-03-20T00:04:34.412Z,13.52
2023-03-20T00:07:01.763Z,10.77
2023-03-20T00:09:28.583Z,8.85
2023-03-20T00:11:56.311Z,13.20
2023-03-20T00:14:25.096Z,13.20
2023-03-20T00:16:52.543Z,13.60
2023-03-20T00:19:26.636Z,12.70
2023-03-20T00:21:55.434Z,10.27
2023-03-20T00:24:23.565Z,11.52
2023-03-20T00:26:52.533Z,11.13
2023-03-20T00:29:28.851Z,10.88
2023-03-20T00:31:56.352Z,12.95
2023-03-20T00:34:29.177Z,12.43
2023-03-20T00:36:56.991Z,18.17
2023-03-20T00:39:24.543Z,14.02
2023-03-20T00:41:53.037Z,6.85
2023-03-20T00:44:26.429Z,14.25
2023-03-20T00:47:00.738Z,13.18
2023-03-20T00:49:32.680Z,13.95
2023-03-20T00:52:01.497Z,13.25
2023-03-20T00:54:28.809Z,12.00
2023-03-20T00:57:07.945Z,13.55
2023-03-20T00:59:40.332Z,19.80
2023-03-20T01:02:07.454Z,15.63
2023-03-20T01:04:41.606Z,11.38
2023-03-20T01:07:14.678Z,10.57
2023-03-20T01:09:41.894Z,13.75
2023-03-20T01:12:12.793Z,16.20
2023-03-20T01:14:39.713Z,15.20
2023-03-20T01:17:13.594Z,13.73
2023-03-20T01:19:40.830Z,14.13
2023-03-20T01:22:08.027Z,15.57
2023-03-20T01:24:34.767Z,17.77
2023-03-20T01:27:04.226Z,9.07
2023-03-20T01:29:31.866Z,14.65
2023-03-20T01:31:58.749Z,14.65
2023-03-20T01:34:25.930Z,15.48
2023-03-20T01:36:56.333Z,12.63
2023-03-20T01:39:33.186Z,16.08
2023-03-20T01:42:00.620Z,12.57
2023-03-20T01:44:32.234Z,16.20
2023-03-20T01:47:00.711Z,19.40
2023-03-20T01:49:28.450Z,10.48
2023-03-20T01:51:57.478Z,14.02
2023-03-20T01:54:28.021Z,12.80
2023-03-20T01:57:02.853Z,11.50
2023-03-20T01:59:57.669Z,10.95
2023-03-20T02:02:29.649Z,15.23
2023-03-20T02:05:02.868Z,13.45
2023-03-20T02:07:33.418Z,10.70
2023-03-20T02:10:02.252Z,12.73
2023-03-20T02:12:29.568Z,14.07
2023-03-20T02:14:57.045Z,13.40
2023-03-20T02:17:24.618Z,13.68
2023-03-20T02:20:23.022Z,13.73
2023-03-20T02:23:17.557Z,17.70
2023-03-20T02:26:29.894Z,14.65
2023-03-20T02:29:18.642Z,13.45
2023-03-20T02:32:07.541Z,15.05
2023-03-20T02:34:54.167Z,16.63
2023-03-20T02:37:44.979Z,15.48
2023-03-20T02:40:24.214Z,14.00
2023-03-20T02:43:26.269Z,15.15
2023-03-20T02:46:08.167Z,17.88
2023-03-20T02:49:01.821Z,16.00
2023-03-20T02:51:41.141Z,14.57
2023-03-20T02:54:15.491Z,17.27
2023-03-20T02:57:09.605Z,15.27
2023-03-20T02:59:59.747Z,16.52
2023-03-20T03:02:38.770Z,16.95
2023-03-20T03:05:16.987Z,12.13
2023-03-20T03:07:50.096Z,14.43
2023-03-20T03:10:42.219Z,17.80
2023-03-20T03:13:16.481Z,14.32
2023-03-20T03:15:49.237Z,14.05
2023-03-20T03:18:21.392Z,17.17
2023-03-20T03:20:54.633Z,16.83
2023-03-20T03:23:36.126Z,13.32
2023-03-20T03:26:06.891Z,15.60
2023-03-20T03:28:57.686Z,12.50
2023-03-20T03:31:25.503Z,13.60
2023-03-20T03:33:55.987Z,19.52
2023-03-20T03:36:39.908Z,17.95
2023-03-20T03:39:54.043Z,16.92
2023-03-20T03:42:36.338Z,12.75
2023-03-20T03:45:17.646Z,12.88
2023-03-20T03:47:54.431Z,16.27
2023-03-20T03:50:30.560Z,17.10
2023-03-20T03:53:03.290Z,15.98
2023-03-20T03:55:40.112Z,20.95
2023-03-20T03:58:37.944Z,14.70
2023-03-20T04:01:06.842Z,12.02
2023-03-20T04:03:39.151Z,16.17
2023-03-20T04:06:10.135Z,18.77
2023-03-20T04:08:37.125Z,21.52
2023-03-20T04:11:04.126Z,11.18
2023-03-20T04:13:30.910Z,12.73
2023-03-20T04:15:57.740Z,19.42
2023-03-20T04:18:24.537Z,15.73
2023-03-20T04:20:52.528Z,15.63
2023-03-20T04:23:19.398Z,15.55
2023-03-20T04:25:46.189Z,13.73
2023-03-20T04:28:16.424Z,11.85
2023-03-20T04:30:44.908Z,17.55
2023-03-20T04:33:12.303Z,12.30
2023-03-20T04:35:39.403Z,12.23
2023-03-20T04:38:07.371Z,9.82
2023-03-20T04:40:34.148Z,13.30
2023-03-20T04:43:01.205Z,13.25
2023-03-20T04:45:28.045Z,9.68
2023-03-20T04:47:54.852Z,13.30
2023-03-20T04:50:22.474Z,12.30
2023-03-20T04:52:49.260Z,15.88
2023-03-20T04:55:16.407Z,13.02
2023-03-20T04:57:43.209Z,10.55
2023-03-20T05:00:11.292Z,11.75
2023-03-20T05:02:38.528Z,11.60
2023-03-20T05:05:05.929Z,6.68
2023-03-20T05:07:33.316Z,11.25
2023-03-20T05:10:00.412Z,9.25
2023-03-20T05:12:27.718Z,7.20
2023-03-20T05:14:57.798Z,11.77
2023-03-20T05:17:25.093Z,11.77
2023-03-20T05:19:52.017Z,9.98
2023-03-20T05:22:19.170Z,15.18
2023-03-20T05:24:46.414Z,9.52
2023-03-20T05:27:13.212Z,7.28
2023-03-20T05:29:40.034Z,10.10
2023-03-20T05:32:07.234Z,10.50
2023-03-20T05:34:34.000Z,9.35
2023-03-20T05:37:00.999Z,10.38
2023-03-20T05:39:27.806Z,8.50
2023-03-20T05:41:54.652Z,10.77
2023-03-20T05:44:21.711Z,11.82
2023-03-20T05:46:48.531Z,8.77
2023-03-20T05:49:15.546Z,9.82
2023-03-20T05:51:42.792Z,6.53
2023-03-20T05:54:09.612Z,8.63
2023-03-20T05:56:36.405Z,7.97
2023-03-20T05:59:03.365Z,10.05
2023-03-20T06:01:30.241Z,7.22
2023-03-20T06:03:57.337Z,10.90
2023-03-20T06:06:24.184Z,9.05
2023-03-20T06:08:51.229Z,10.40
2023-03-20T06:11:18.531Z,11.15
2023-03-20T06:13:45.521Z,9.40
2023-03-20T06:16:12.379Z,10.52
2023-03-20T06:18:39.458Z,8.23
2023-03-20T06:21:06.481Z,10.27
2023-03-20T06:23:33.474Z,8.88
2023-03-20T06:26:00.399Z,10.40
2023-03-20T06:28:27.172Z,10.52
2023-03-20T06:30:54.598Z,9.57
2023-03-20T06:33:22.173Z,10.15
2023-03-20T06:35:49.492Z,10.75
2023-03-20T06:38:16.789Z,7.25
2023-03-20T06:40:43.600Z,14.80
2023-03-20T06:43:12.597Z,14.90
2023-03-20T06:45:40.075Z,12.30
2023-03-20T06:48:09.134Z,10.35
2023-03-20T06:50:36.000Z,8.75
2023-03-20T06:53:03.682Z,12.23
2023-03-20T06:55:31.237Z,8.43
2023-03-20T06:57:58.344Z,12.85
2023-03-20T07:00:25.568Z,14.27
2023-03-20T07:02:52.369Z,11.25
2023-03-20T07:05:19.258Z,14.90
2023-03-20T07:07:46.964Z,12.50
2023-03-20T07:10:13.745Z,13.13
2023-03-20T07:12:40.566Z,12.20
2023-03-20T07:15:07.937Z,13.02
2023-03-20T07:17:36.053Z,13.75
2023-03-20T07:20:04.698Z,12.35
2023-03-20T07:22:31.957Z,16.77
2023-03-20T07:24:58.808Z,12.75
2023-03-20T07:27:26.352Z,10.35
2023-03-20T07:29:53.172Z,14.35
2023-03-20T07:32:20.932Z,14.20
2023-03-20T07:34:48.530Z,14.32
2023-03-20T07:37:15.713Z,15.30
2023-03-20T07:39:42.814Z,12.80
2023-03-20T07:42:09.645Z,17.98
2023-03-20T07:44:36.504Z,14.35
2023-03-20T07:47:03.724Z,15.80
2023-03-20T07:49:30.554Z,15.10
2023-03-20T07:51:57.421Z,12.90
2023-03-20T07:54:24.391Z,17.77
2023-03-20T07:56:51.282Z,13.60
2023-03-20T07:59:18.202Z,16.70
2023-03-20T08:01:45.514Z,19.73
2023-03-20T08:04:12.507Z,17.52
2023-03-20T08:06:39.758Z,22.55
2023-03-20T08:09:07.023Z,14.68
2023-03-20T08:11:34.823Z,12.02
2023-03-20T08:14:01.761Z,15.95
2023-03-20T08:16:28.808Z,12.40
2023-03-20T08:19:01.291Z,16.05
2023-03-20T08:21:29.581Z,13.45
2023-03-20T08:23:57.191Z,14.90
2023-03-20T08:26:25.688Z,16.45
2023-03-20T08:28:53.204Z,15.80
2023-03-20T08:31:20.417Z,15.43
2023-03-20T08:33:47.567Z,18.40
2023-03-20T08:36:16.165Z,15.45
2023-03-20T08:38:43.595Z,13.95
2023-03-20T08:41:10.534Z,14.90
2023-03-20T08:43:37.430Z,12.02
2023-03-20T08:46:05.273Z,11.38
2023-03-20T08:48:32.742Z,15.90
2023-03-20T08:50:59.876Z,13.38
2023-03-20T08:53:27.556Z,12.63
2023-03-20T08:55:54.890Z,10.07
2023-03-20T08:58:22.648Z,10.68
2023-03-20T09:00:49.983Z,11.23
2023-03-20T09:03:21.200Z,10.95
2023-03-20T09:05:51.533Z,10.80
2023-03-20T09:08:19.301Z,9.30
2023-03-20T09:10:50.820Z,10.90
2023-03-20T09:13:27.293Z,10.43
2023-03-20T09:15:56.315Z,12.05
2023-03-20T09:18:23.894Z,7.80
2023-03-20T09:20:51.068Z,9.25
2023-03-20T09:23:18.958Z,7.30
2023-03-20T09:25:47.414Z,7.82
2023-03-20T09:28:14.461Z,7.55
2023-03-20T09:30:41.563Z,7.10
2023-03-20T09:33:08.524Z,6.50
2023-03-20T09:35:35.788Z,6.15
2023-03-20T09:38:02.587Z,10.90
2023-03-20T09:40:43.945Z,5.20
2023-03-20T09:43:44.940Z,6.22
2023-03-20T09:46:37.056Z,5.22
2023-03-20T09:49:41.198Z,6.75
2023-03-20T09:52:24.261Z,4.85
2023-03-20T09:54:56.501Z,8.30
2023-03-20T09:57:32.945Z,4.90
2023-03-20T10:00:07.726Z,4.20
2023-03-20T10:02:44.217Z,5.85
2023-03-20T10:05:24.768Z,5.60
2023-03-20T10:07:54.996Z,4.63
2023-03-20T10:10:46.828Z,3.35
2023-03-20T10:13:54.062Z,4.70
2023-03-20T10:16:38.855Z,4.00
2023-03-20T10:19:29.275Z,6.63
2023-03-20T10:22:43.006Z,3.35
2023-03-20T10:25:32.512Z,4.05
2023-03-20T10:28:22.794Z,3.10
2023-03-20T10:31:38.496Z,3.42
2023-03-20T10:34:13.999Z,2.35
2023-03-20T10:37:18.901Z,2.97
2023-03-20T10:40:14.512Z,2.88
2023-03-20T10:42:45.935Z,4.20
2023-03-20T10:45:34.459Z,3.53
2023-03-20T10:48:10.479Z,3.72
2023-03-20T10:50:57.634Z,2.95
2023-03-20T10:53:38.156Z,3.90
2023-03-20T10:56:17.134Z,3.00
2023-03-20T10:58:50.744Z,1.83
2023-03-20T11:01:18.979Z,2.67
2023-03-20T11:03:45.790Z,2.00
2023-03-20T11:06:12.797Z,2.65
2023-03-20T11:08:51.024Z,3.70
2023-03-20T11:11:34.953Z,3.80
2023-03-20T11:14:18.926Z,1.75
2023-03-20T11:16:55.204Z,1.95
2023-03-20T11:19:24.744Z,2.22
2023-03-20T11:22:01.622Z,2.20
2023-03-20T11:24:36.756Z,3.25
2023-03-20T11:29:57.165Z,2.20
2023-03-20T11:32:48.306Z,2.03
2023-03-20T11:35:31.258Z,2.30
2023-03-20T11:38:17.390Z,3.45
2023-03-20T11:40:44.377Z,3.10
2023-03-20T11:43:26.947Z,3.38
2023-03-20T11:46:01.255Z,3.47
2023-03-20T11:48:43.366Z,1.83
2023-03-20T11:51:19.160Z,1.55
2023-03-20T11:53:48.900Z,0.90
2023-03-20T11:56:24.352Z,1.30
2023-03-20T11:59:09.479Z,1.38
2023-03-20T12:01:47.330Z,1.70
2023-03-20T12:04:20.692Z,1.58
2023-03-20T12:07:13.795Z,1.27
2023-03-20T12:09:48.838Z,1.85
2023-03-20T12:15:13.856Z,2.20
2023-03-20T12:17:52.577Z,2.30
2023-03-20T12:20:44.449Z,1.60
2023-03-20T12:23:30.233Z,1.05
2023-03-20T12:26:05.167Z,1.52
2023-03-20T12:28:52.050Z,1.67
2023-03-20T12:31:46.586Z,1.02
2023-03-20T12:34:25.482Z,0.90
2023-03-20T12:36:53.238Z,0.70
2023-03-20T12:39:34.536Z,0.55
2023-03-20T12:42:27.084Z,2.17
2023-03-20T12:45:24.131Z,1.13
2023-03-20T12:48:06.315Z,0.80
2023-03-20T12:50:50.697Z,1.13
2023-03-20T12:53:45.043Z,1.25
2023-03-20T12:56:55.579Z,1.02
2023-03-20T12:59:49.969Z,1.35
2023-03-20T13:02:54.624Z,0.90
2023-03-20T13:05:33.354Z,2.22
2023-03-20T13:08:18.351Z,0.93
2023-03-20T13:10:52.956Z,0.75
2023-03-20T13:13:29.778Z,0.85
2023-03-20T13:16:10.144Z,1.33
2023-03-20T13:19:01.240Z,2.30
2023-03-20T13:21:47.003Z,1.17
2023-03-20T13:24:22.909Z,2.05
2023-03-20T13:27:11.737Z,3.15
2023-03-20T13:29:56.769Z,1.40
2023-03-20T13:32:38.732Z,0.75
2023-03-20T13:35:23.913Z,1.08
2023-03-20T13:38:23.392Z,0.80
2023-03-20T13:41:11.021Z,1.08
2023-03-20T13:43:48.122Z,1.58
2023-03-20T13:46:54.542Z,1.27
2023-03-20T13:49:27.223Z,1.30
2023-03-20T13:51:59.120Z,1.63
2023-03-20T13:55:19.969Z,1.15
2023-03-20T13:57:54.658Z,2.10
2023-03-20T14:00:28.696Z,1.10
2023-03-20T14:03:34.120Z,0.90
2023-03-20T14:06:01.056Z,3.80
2023-03-20T14:08:27.795Z,1.65
2023-03-20T14:11:08.107Z,2.78
2023-03-20T14:13:36.447Z,1.60
2023-03-20T14:16:09.361Z,1.95
2023-03-20T14:18:36.731Z,1.45
2023-03-20T14:21:13.447Z,7.25
2023-03-20T14:23:47.117Z,10.82
2023-03-20T14:26:25.969Z,1.67
2023-03-20T14:29:11.342Z,1.42
2023-03-20T14:31:42.280Z,0.80
2023-03-20T14:34:12.395Z,1.27
2023-03-20T14:37:02.417Z,1.83
2023-03-20T14:40:14.354Z,1.27
2023-03-20T14:42:48.590Z,1.00
2023-03-20T14:45:43.107Z,1.87
2023-03-20T14:48:35.123Z,2.53
2023-03-20T14:51:14.941Z,1.27
2023-03-20T14:53:41.951Z,0.95
2023-03-20T14:56:14.871Z,2.40
2023-03-20T14:58:58.338Z,0.88
2023-03-20T15:01:49.126Z,2.25
2023-03-20T15:04:39.826Z,1.05
2023-03-20T15:07:27.340Z,1.63
2023-03-20T15:09:59.613Z,1.23
2023-03-20T15:12:31.653Z,3.13
2023-03-20T15:15:02.623Z,1.98
2023-03-20T15:17:38.101Z,2.63
2023-03-20T15:20:23.706Z,1.33
2023-03-20T15:23:00.143Z,3.15
2023-03-20T15:25:36.727Z,0.70
2023-03-20T15:28:19.459Z,1.10
2023-03-20T15:30:50.044Z,2.92
2023-03-20T15:33:42.100Z,1.33
2023-03-20T15:36:15.975Z,1.33
2023-03-20T15:38:45.455Z,0.93
2023-03-20T15:41:34.524Z,1.88
2023-03-20T15:44:22.790Z,1.90
2023-03-20T15:47:04.059Z,2.00
2023-03-20T15:49:34.313Z,2.97
2023-03-20T15:52:07.445Z,2.00
2023-03-20T15:54:37.570Z,3.78
2023-03-20T15:57:05.671Z,4.93
2023-03-20T15:59:34.618Z,3.70
2023-03-20T16:02:02.323Z,2.95
2023-03-20T16:04:29.247Z,3.00
2023-03-20T16:07:00.563Z,2.80
2023-03-20T16:09:28.862Z,4.53
2023-03-20T16:12:02.880Z,5.68
2023-03-20T16:14:34.186Z,3.63
2023-03-20T16:17:03.703Z,4.82
2023-03-20T16:19:30.845Z,3.78
2023-03-20T16:22:31.008Z,2.80
2023-03-20T16:25:01.597Z,3.47
2023-03-20T16:27:36.053Z,2.67
2023-03-20T16:30:17.169Z,3.35
2023-03-20T16:32:47.803Z,3.38
2023-03-20T16:35:25.042Z,7.15
2023-03-20T16:38:02.758Z,2.72
2023-03-20T16:40:37.150Z,5.30
2023-03-20T16:43:14.936Z,2.97
2023-03-20T16:45:46.329Z,3.13
2023-03-20T16:48:13.124Z,3.72
2023-03-20T16:50:44.307Z,3.53
2023-03-20T16:53:20.715Z,2.63
2023-03-20T16:55:50.678Z,3.40
2023-03-20T16:58:24.830Z,2.15
2023-03-20T17:01:02.227Z,4.68
2023-03-20T17:03:38.238Z,2.83
2023-03-20T17:06:35.750Z,2.55
2023-03-20T17:09:28.314Z,2.65
2023-03-20T17:12:12.168Z,2.88
2023-03-20T17:14:40.655Z,3.03
2023-03-20T17:17:18.910Z,3.47
2023-03-20T17:19:47.113Z,3.97
2023-03-20T17:22:18.256Z,4.78
2023-03-20T17:24:45.121Z,5.22
2023-03-20T17:27:13.399Z,2.67
2023-03-20T17:29:41.584Z,3.85
2023-03-20T17:32:17.960Z,2.05
2023-03-20T17:34:45.807Z,2.58
2023-03-20T17:37:29.572Z,2.72
2023-03-20T17:39:57.513Z,3.33
2023-03-20T17:42:30.782Z,3.40
2023-03-20T17:45:05.441Z,4.00
2023-03-20T17:47:32.610Z,4.10
2023-03-20T17:49:59.781Z,3.35
2023-03-20T17:52:28.862Z,3.90
2023-03-20T17:54:56.440Z,3.42
2023-03-20T17:57:39.194Z,2.80
2023-03-20T18:00:15.897Z,2.97
2023-03-20T18:02:43.054Z,3.33
2023-03-20T18:05:10.736Z,2.72
2023-03-20T18:07:37.741Z,3.95
2023-03-20T18:10:06.537Z,2.88
2023-03-20T18:12:34.645Z,4.05
2023-03-20T18:15:01.719Z,2.45
2023-03-20T18:17:28.698Z,3.30
2023-03-20T18:19:55.783Z,2.70
2023-03-20T18:22:22.906Z,2.83
2023-03-20T18:24:49.773Z,2.70
2023-03-20T18:27:16.842Z,2.67
2023-03-20T18:29:44.334Z,2.97
2023-03-20T18:32:11.216Z,3.85
2023-03-20T18:34:38.117Z,3.40
2023-03-20T18:37:08.124Z,3.58
2023-03-20T18:39:35.062Z,3.38
2023-03-20T18:42:02.053Z,3.38
2023-03-20T18:44:28.870Z,3.33
2023-03-20T18:46:55.641Z,3.83
2023-03-20T18:49:22.492Z,4.00
2023-03-20T18:51:49.896Z,3.55
2023-03-20T18:54:16.780Z,5.45
2023-03-20T18:56:44.137Z,4.18
2023-03-20T18:59:13.358Z,4.53
2023-03-20T19:01:40.179Z,4.78
2023-03-20T19:04:07.373Z,4.97
2023-03-20T19:06:34.373Z,4.55
2023-03-20T19:09:05.344Z,4.88
2023-03-20T19:11:32.436Z,5.15
2023-03-20T19:13:59.266Z,5.95
2023-03-20T19:16:28.420Z,5.47
2023-03-20T19:18:59.089Z,6.65
2023-03-20T19:21:29.230Z,5.80
2023-03-20T19:23:59.702Z,4.45
2023-03-20T19:26:29.271Z,3.42
2023-03-20T19:28:58.944Z,5.22
2023-03-20T19:31:26.956Z,4.30
2023-03-20T19:33:54.739Z,6.88
2023-03-20T19:36:33.685Z,6.50
2023-03-20T19:39:04.031Z,8.77
2023-03-20T19:41:32.556Z,4.97
2023-03-20T19:43:59.623Z,4.32
2023-03-20T19:46:39.710Z,5.18
2023-03-20T19:49:24.999Z,5.38
2023-03-20T19:51:56.648Z,6.13
2023-03-20T19:54:23.572Z,5.75
2023-03-20T19:56:50.440Z,5.90
2023-03-20T19:59:17.407Z,5.25
2023-03-20T20:01:45.574Z,6.22
2023-03-20T20:04:12.805Z,3.88
2023-03-20T20:06:40.337Z,3.75
2023-03-20T20:09:08.555Z,5.32
2023-03-20T20:11:35.440Z,5.88
2023-03-20T20:14:08.027Z,3.80
2023-03-20T20:16:37.318Z,4.03
2023-03-20T20:19:05.134Z,5.40
2023-03-20T20:24:19.994Z,7.13
2023-03-20T20:26:56.781Z,5.75
2023-03-20T20:29:30.414Z,4.70
2023-03-20T20:31:57.435Z,5.32
2023-03-20T20:35:22.471Z,4.72
2023-03-20T20:37:51.731Z,7.78
2023-03-20T20:39:59.514Z,5.00
2023-03-20T20:42:26.567Z,6.72
2023-03-20T20:44:53.486Z,6.68
2023-03-20T20:47:20.450Z,6.95
2023-03-20T20:49:47.853Z,5.97
2023-03-20T20:52:16.010Z,5.85
2023-03-20T20:54:42.856Z,5.15
2023-03-20T20:57:14.536Z,5.20
2023-03-20T20:59:42.015Z,5.35
2023-03-20T21:02:15.553Z,4.57
2023-03-20T21:04:44.037Z,4.32
2023-03-20T21:07:13.388Z,4.72
2023-03-20T21:09:41.391Z,4.47
2023-03-20T21:12:14.749Z,3.33
2023-03-20T21:14:51.102Z,2.92
2023-03-20T21:17:18.161Z,3.65
2023-03-20T21:19:45.119Z,2.88
2023-03-20T21:22:16.026Z,3.10
2023-03-20T21:24:44.106Z,2.60
2023-03-20T21:27:14.672Z,2.67
2023-03-20T21:29:43.353Z,2.13
2023-03-20T21:32:17.364Z,2.05
2023-03-20T21:34:44.415Z,2.30
2023-03-20T21:38:18.538Z,3.28
2023-03-20T21:40:08.976Z,6.85
2023-03-20T21:42:36.948Z,3.78
2023-03-20T21:46:02.757Z,2.53
2023-03-20T21:48:30.000Z,2.97
2023-03-20T21:51:42.341Z,3.83
2023-03-20T21:54:24.588Z,2.92
2023-03-20T22:02:04.874Z,2.85
2023-03-20T22:07:52.027Z,2.17
2023-03-20T22:14:05.970Z,3.10
2023-03-20T22:30:26.089Z,4.30
2023-03-20T22:36:10.464Z,8.25
2023-03-20T22:44:35.362Z,7.55
2023-03-20T22:46:44.784Z,9.30
2023-03-20T22:49:12.479Z,11.18
2023-03-20T22:51:57.530Z,10.60
2023-03-20T22:54:29.286Z,12.88
2023-03-20T22:56:56.293Z,12.82
2023-03-20T22:59:23.229Z,10.25
2023-03-20T23:01:50.183Z,12.48
2023-03-20T23:04:17.049Z,14.10
2023-03-20T23:06:43.961Z,12.00
2023-03-20T23:09:15.223Z,23.85
2023-03-20T23:11:43.107Z,12.02
2023-03-20T23:14:20.532Z,11.38
2023-03-20T23:16:49.324Z,17.65
2023-03-20T23:19:16.596Z,16.08
2023-03-20T23:21:43.417Z,15.02
2023-03-20T23:24:10.425Z,14.60
2023-03-20T23:26:37.210Z,14.45
2023-03-20T23:29:04.254Z,19.55
2023-03-20T23:31:31.163Z,18.05
2023-03-20T23:33:58.405Z,14.18
2023-03-20T23:36:42.427Z,16.98
2023-03-20T23:39:12.211Z,17.75
2023-03-20T23:42:09.911Z,18.60
2023-03-20T23:44:26.421Z,14.20
2023-03-20T23:46:54.802Z,15.77
2023-03-20T23:49:21.858Z,13.15
2023-03-20T23:51:48.783Z,15.85
2023-03-20T23:54:16.080Z,12.48
2023-03-20T23:56:43.016Z,17.27
2023-03-20T23:59:22.786Z,21.08
